createdAt,value
2023-10-01T00:00:04.216Z,12.661
2023-10-01T00:05:04.028Z,11.048
2023-10-01T00:10:04.078Z,14.232
2023-10-01T00:15:03.782Z,14.959
2023-10-01T00:20:04.595Z,16.947
2023-10-01T00:25:04.862Z,15.912
2023-10-01T00:30:04.692Z,14.871
2023-10-01T00:35:04.533Z,17.141
2023-10-01T00:40:04.400Z,14.032
2023-10-01T00:45:04.084Z,15.706
2023-10-01T00:50:03.895Z,12.055
2023-10-01T00:55:04.901Z,13.761
2023-10-01T01:00:04.117Z,13.675
2023-10-01T01:05:03.897Z,14.384
2023-10-01T01:10:05.089Z,19.06
2023-10-01T01:15:03.742Z,12.607
2023-10-01T01:20:03.813Z,15.966
2023-10-01T01:25:05.449Z,14.52
2023-10-01T01:30:04.160Z,11.145
2023-10-01T01:35:03.968Z,13.052
2023-10-01T01:40:04.913Z,10.707
2023-10-01T01:45:04.645Z,11.178
2023-10-01T01:50:04.434Z,13.356
2023-10-01T01:55:04.489Z,10.945
2023-10-01T02:00:04.228Z,12.483
2023-10-01T02:05:04.307Z,15.516
2023-10-01T02:10:04.201Z,15.213
2023-10-01T02:15:03.976Z,11.642
2023-10-01T02:20:03.911Z,9.156
2023-10-01T02:25:04.795Z,10.408
2023-10-01T02:30:04.427Z,10.571
2023-10-01T02:35:04.148Z,8.295
2023-10-01T02:40:03.966Z,12
2023-10-01T02:45:04.679Z,8.794
2023-10-01T02:50:04.413Z,10.631
2023-10-01T02:55:04.429Z,9.367
2023-10-01T03:00:04.290Z,11.264
2023-10-01T03:05:04.161Z,11.513
2023-10-01T03:10:04.015Z,9.097
2023-10-01T03:15:03.800Z,12.422
2023-10-01T03:20:05.042Z,11.714
2023-10-01T03:25:04.040Z,10.066
2023-10-01T03:30:04.731Z,10.446
2023-10-01T03:35:04.362Z,8.247
2023-10-01T03:40:04.326Z,11.367
2023-10-01T03:45:03.967Z,10.197
2023-10-01T03:50:03.732Z,8.561
2023-10-01T03:55:04.594Z,10.549
2023-10-01T04:00:04.244Z,10.793
2023-10-01T04:05:04.166Z,10.57
2023-10-01T04:10:04.217Z,10.164
2023-10-01T04:15:04.363Z,9.628
2023-10-01T04:20:04.524Z,6.114
2023-10-01T04:25:04.540Z,6.958
2023-10-01T04:30:04.185Z,7.31
2023-10-01T04:35:03.980Z,7.223
2023-10-01T04:40:04.511Z,14.622
2023-10-01T04:45:04.255Z,7.002
2023-10-01T04:50:04.379Z,5.89
2023-10-01T04:55:24.832Z,6.742
2023-10-01T05:00:04.600Z,6.611
2023-10-01T05:05:04.404Z,5.62
2023-10-01T05:10:04.168Z,8.826
2023-10-01T05:15:04.112Z,7.278
2023-10-01T05:20:04.069Z,4.862
2023-10-01T05:25:04.493Z,8.524
2023-10-01T05:30:04.084Z,6.336
2023-10-01T05:35:03.968Z,4.5
2023-10-01T05:40:15.255Z,6.606
2023-10-01T05:45:04.053Z,5.154
2023-10-01T05:50:04.473Z,5.577
2023-10-01T05:55:05.218Z,7.462
2023-10-01T06:00:04.126Z,5.198
2023-10-01T06:05:03.935Z,4.207
2023-10-01T06:10:04.109Z,4.575
2023-10-01T06:15:03.848Z,4.608
2023-10-01T06:20:03.857Z,5.376
2023-10-01T06:25:04.403Z,5.728
2023-10-01T06:30:04.041Z,5.82
2023-10-01T06:35:03.968Z,4.91
2023-10-01T06:40:04.924Z,4.392
2023-10-01T06:45:03.787Z,5.166
2023-10-01T06:50:04.738Z,5.089
2023-10-01T06:55:05.005Z,6.655
2023-10-01T07:00:03.963Z,5.697
2023-10-01T07:05:20.877Z,4.494
2023-10-01T07:10:04.352Z,4.781
2023-10-01T07:15:04.153Z,2.766
2023-10-01T07:20:04.412Z,3.903
2023-10-01T07:25:04.149Z,5.934
2023-10-01T07:30:04.450Z,4.923
2023-10-01T07:35:04.893Z,2.739
2023-10-01T07:40:04.938Z,3.216
2023-10-01T07:45:03.844Z,2.137
2023-10-01T07:50:03.793Z,3.849
2023-10-01T07:55:04.167Z,4.683
2023-10-01T08:00:04.214Z,2.993
2023-10-01T08:05:04.355Z,3.866
2023-10-01T08:10:04.438Z,2.608
2023-10-01T08:15:04.100Z,2.414
2023-10-01T08:20:04.015Z,3.659
2023-10-01T08:25:04.917Z,2.734
2023-10-01T08:30:04.667Z,3.411
2023-10-01T08:35:04.621Z,4.342
2023-10-01T08:40:04.769Z,3.497
2023-10-01T08:45:04.334Z,2.283
2023-10-01T08:50:04.321Z,3.226
2023-10-01T08:55:04.286Z,3.232
2023-10-01T09:00:04.123Z,1.624
2023-10-01T09:05:04.108Z,2.116
2023-10-01T09:10:04.578Z,4.309
2023-10-01T09:15:03.833Z,2.956
2023-10-01T09:20:04.323Z,2.409
2023-10-01T09:25:04.779Z,2.664
2023-10-01T09:30:04.765Z,2.526
2023-10-01T09:35:03.779Z,4.402
2023-10-01T09:40:04.790Z,2.604
2023-10-01T09:45:04.715Z,3.031
2023-10-01T09:50:04.713Z,2.68
2023-10-01T09:55:05.047Z,3.222
2023-10-01T10:00:04.292Z,3.818
2023-10-01T10:05:05.042Z,3.524
2023-10-01T10:10:04.526Z,3.605
2023-10-01T10:15:04.570Z,2.5
2023-10-01T10:20:04.590Z,5.15
2023-10-01T10:25:05.066Z,4.197
2023-10-01T10:30:04.401Z,5.614
2023-10-01T10:35:04.165Z,4.158
2023-10-01T10:40:04.817Z,2.469
2023-10-01T10:45:04.307Z,2.274
2023-10-01T10:50:04.630Z,3.709
2023-10-01T10:55:04.175Z,3.379
2023-10-01T11:00:04.522Z,2.219
2023-10-01T11:05:04.415Z,2.175
2023-10-01T11:10:04.000Z,1.624
2023-10-01T11:15:04.191Z,1.948
2023-10-01T11:20:04.772Z,2.436
2023-10-01T11:25:06.388Z,6.567
2023-10-01T11:30:04.140Z,2.989
2023-10-01T11:35:04.126Z,5.43
2023-10-01T11:40:03.921Z,3.687
2023-10-01T11:45:03.814Z,3.822
2023-10-01T11:50:04.182Z,3.817
2023-10-01T11:55:04.014Z,4.716
2023-10-01T12:00:04.365Z,4.521
2023-10-01T12:05:04.505Z,3.659
2023-10-01T12:10:04.346Z,4.825
2023-10-01T12:15:04.159Z,4.987
2023-10-01T12:20:04.127Z,3.384
2023-10-01T12:25:03.940Z,2.739
2023-10-01T12:30:03.908Z,2.468
2023-10-01T12:35:04.755Z,2.55
2023-10-01T12:40:04.453Z,5.403
2023-10-01T12:45:04.231Z,5.069
2023-10-01T12:50:04.081Z,4.179
2023-10-01T12:55:03.858Z,4.473
2023-10-01T13:00:04.570Z,3.48
2023-10-01T13:05:04.348Z,4.954
2023-10-01T13:10:04.176Z,4.586
2023-10-01T13:15:03.917Z,8.908
2023-10-01T13:20:03.804Z,2.469
2023-10-01T13:25:04.570Z,3.794
2023-10-01T13:30:04.876Z,3.426
2023-10-01T13:35:04.696Z,5.783
2023-10-01T13:40:04.626Z,17.712
2023-10-01T13:45:04.430Z,3.303
2023-10-01T13:50:05.265Z,5.193
2023-10-01T13:55:04.135Z,7.51
2023-10-01T14:00:04.424Z,5.193
2023-10-01T14:05:04.613Z,3.817
2023-10-01T14:10:04.777Z,7.591
2023-10-01T14:15:04.600Z,6.637
2023-10-01T14:20:04.542Z,6.552
2023-10-01T14:25:04.219Z,5.078
2023-10-01T14:30:03.998Z,6.329
2023-10-01T14:35:03.943Z,5.029
2023-10-01T14:40:04.706Z,4.874
2023-10-01T14:45:04.469Z,5.144
2023-10-01T14:50:04.306Z,7.077
2023-10-01T14:55:04.225Z,5.745
2023-10-01T15:00:04.039Z,6.292
2023-10-01T15:05:04.328Z,4.353
2023-10-01T15:10:04.122Z,5.751
2023-10-01T15:16:44.238Z,5.274
2023-10-01T15:20:04.711Z,3.426
2023-10-01T15:25:04.228Z,6.303
2023-10-01T15:30:03.735Z,5.285
2023-10-01T15:35:04.169Z,5.87
2023-10-01T15:40:04.706Z,5.902
2023-10-01T15:45:03.854Z,6.324
2023-10-01T15:50:04.222Z,5.289
2023-10-01T15:55:04.468Z,7.331
2023-10-01T16:00:04.256Z,4.96
2023-10-01T16:05:04.918Z,3.622
2023-10-01T16:10:03.786Z,4.158
2023-10-01T16:15:04.095Z,6.286
2023-10-01T16:20:03.967Z,10.528
2023-10-01T16:25:04.020Z,6.276
2023-10-01T16:30:03.890Z,6.049
2023-10-01T16:35:03.897Z,5.122
2023-10-01T16:40:04.565Z,6.676
2023-10-01T16:45:03.686Z,6.681
2023-10-01T16:50:04.669Z,5.663
2023-10-01T16:55:04.359Z,3.892
2023-10-01T17:00:04.070Z,5.62
2023-10-01T17:05:04.076Z,7.23
2023-10-01T17:10:03.754Z,6.206
2023-10-01T17:15:04.452Z,6.962
2023-10-01T17:20:04.645Z,6.048
2023-10-01T17:25:04.280Z,7.787
2023-10-01T17:30:03.892Z,8.263
2023-10-01T17:35:04.936Z,5.94
2023-10-01T17:40:04.590Z,6.682
2023-10-01T17:45:04.450Z,6.384
2023-10-01T17:50:04.512Z,8.003
2023-10-01T17:55:05.588Z,4.792
2023-10-01T18:00:04.250Z,6.351
2023-10-01T18:05:04.327Z,7.743
2023-10-01T18:10:04.046Z,8.102
2023-10-01T18:15:03.896Z,5.529
2023-10-01T18:20:04.236Z,9.465
2023-10-01T18:25:04.043Z,4.483
2023-10-01T18:30:03.839Z,7.949
2023-10-01T18:35:04.719Z,6.54
2023-10-01T18:40:04.457Z,6.525
2023-10-01T18:45:04.140Z,6.97
2023-10-01T18:50:04.113Z,7.504
2023-10-01T18:55:03.936Z,7.917
2023-10-01T19:00:04.602Z,10.348
2023-10-01T19:05:04.671Z,8.784
2023-10-01T19:10:04.472Z,8.237
2023-10-01T19:15:04.369Z,8.237
2023-10-01T19:20:04.610Z,7.125
2023-10-01T19:25:04.369Z,10.679
2023-10-01T19:30:04.206Z,12.715
2023-10-01T19:35:04.139Z,12.136
2023-10-01T19:40:03.955Z,9.109
2023-10-01T19:45:03.765Z,10.739
2023-10-01T19:50:04.663Z,8.961
2023-10-01T19:55:06.577Z,10.496
2023-10-01T20:00:04.333Z,9.992
2023-10-01T20:05:04.475Z,9.498
2023-10-01T20:10:04.218Z,11.821
2023-10-01T20:15:03.974Z,12.981
2023-10-01T20:20:04.529Z,11.47
2023-10-01T20:25:04.237Z,11.016
2023-10-01T20:30:04.006Z,15.716
2023-10-01T20:35:03.960Z,19.437
2023-10-01T20:40:04.789Z,22.812
2023-10-01T20:45:04.416Z,17.899
2023-10-01T20:50:09.514Z,20.917
2023-10-01T20:55:04.274Z,18.115
2023-10-01T21:00:03.944Z,16.947
2023-10-01T21:05:04.011Z,13.187
2023-10-01T21:10:03.760Z,11.898
2023-10-01T21:15:04.545Z,10.321
2023-10-01T21:20:04.788Z,11.454
2023-10-01T21:25:04.544Z,14.346
2023-10-01T21:30:04.771Z,13.204
2023-10-01T21:35:04.585Z,11.464
2023-10-01T21:40:04.403Z,11.155
2023-10-01T21:45:04.176Z,11.155
2023-10-01T21:50:04.209Z,13.755
2023-10-01T21:55:03.926Z,10.262
2023-10-01T22:00:05.150Z,9.834
2023-10-01T22:05:04.316Z,10.462
2023-10-01T22:10:04.025Z,9.786
2023-10-01T22:15:03.775Z,10.429
2023-10-01T22:20:05.017Z,9.12
2023-10-01T22:25:03.886Z,8.637
2023-10-01T22:30:04.617Z,10.267
2023-10-01T22:35:04.528Z,9.12
2023-10-01T22:40:04.343Z,10.354
2023-10-01T22:45:04.132Z,5.934
2023-10-01T22:50:04.497Z,8.562
2023-10-01T22:55:04.198Z,7.765
2023-10-01T23:00:03.895Z,6.736
2023-10-01T23:05:04.274Z,9.325
2023-10-01T23:10:04.030Z,9.894
2023-10-01T23:15:04.676Z,9.986
2023-10-01T23:20:04.484Z,7.294
2023-10-01T23:25:04.314Z,8.22
2023-10-01T23:30:04.029Z,7.717
2023-10-01T23:35:04.361Z,8.703
2023-10-01T23:40:04.023Z,8.556
2023-10-01T23:45:04.656Z,6.833
2023-10-01T23:50:04.657Z,8.691
2023-10-01T23:55:04.276Z,9.79
